sensor_id;sensor_type;location;lat;lon;timestamp;pressure;altitude;pressure_sealevel;temperature;humidity
21863;BME280;11096;51.338;12.524;2022-11-20T00:01:05;99837.19;;;-4.72;nan
21863;BME280;11096;51.338;12.524;2022-11-20T00:03:30;99828.81;;;-4.77;nan
21863;BME280;11096;51.338;12.524;2022-11-20T00:06:00;99828.81;;;-4.79;nan
21863;BME280;11096;51.338;12.524;2022-11-20T00:08:25;99823.66;;;-4.71;nan
21863;BME280;11096;51.338;12.524;2022-11-20T00:10:51;99832.91;;;-4.67;nan
21863;BME280;11096;51.338;12.524;2022-11-20T00:13:16;99834.63;;;-4.67;nan
21863;BME280;11096;51.338;12.524;2022-11-20T00:15:42;99832.09;;;-4.69;nan
21863;BME280;11096;51.338;12.524;2022-11-20T00:18:07;99830.44;;;-4.73;nan
21863;BME280;11096;51.338;12.524;2022-11-20T00:20:32;99828.72;;;-4.71;nan
21863;BME280;11096;51.338;12.524;2022-11-20T00:22:58;99827.06;;;-4.73;nan
21863;BME280;11096;51.338;12.524;2022-11-20T00:25:23;99826.97;;;-4.66;nan
21863;BME280;11096;51.338;12.524;2022-11-20T00:27:48;99821.16;;;-4.72;nan
21863;BME280;11096;51.338;12.524;2022-11-20T00:30:14;99822.81;;;-4.73;nan
21863;BME280;11096;51.338;12.524;2022-11-20T00:32:39;99816.81;;;-4.64;nan
21863;BME280;11096;51.338;12.524;2022-11-20T00:35:05;99825.25;;;-4.64;nan
21863;BME280;11096;51.338;12.524;2022-11-20T00:37:30;99827.06;;;-4.72;nan
21863;BME280;11096;51.338;12.524;2022-11-20T00:39:55;99824.66;;;-4.84;nan
21863;BME280;11096;51.338;12.524;2022-11-20T00:42:21;99826.34;;;-4.83;nan
21863;BME280;11096;51.338;12.524;2022-11-20T00:44:46;99823.09;;;-4.98;nan
21863;BME280;11096;51.338;12.524;2022-11-20T00:47:12;99831.44;;;-4.86;nan
21863;BME280;11096;51.338;12.524;2022-11-20T00:49:37;99822.97;;;-4.84;nan
21863;BME280;11096;51.338;12.524;2022-11-20T00:52:02;99824.63;;;-4.83;nan
21863;BME280;11096;51.338;12.524;2022-11-20T00:54:28;99821.25;;;-4.83;nan
21863;BME280;11096;51.338;12.524;2022-11-20T00:56:53;99827.19;;;-4.84;nan
21863;BME280;11096;51.338;12.524;2022-11-20T00:59:19;99820.47;;;-4.90;nan
21863;BME280;11096;51.338;12.524;2022-11-20T01:01:44;99821.31;;;-4.85;nan
21863;BME280;11096;51.338;12.524;2022-11-20T01:04:09;99818.72;;;-4.83;nan
21863;BME280;11096;51.338;12.524;2022-11-20T01:06:37;99822.19;;;-4.90;nan
21863;BME280;11096;51.338;12.524;2022-11-20T01:09:12;99807.16;;;-5.04;nan
21863;BME280;11096;51.338;12.524;2022-11-20T01:11:42;99804.53;;;-4.98;nan
21863;BME280;11096;51.338;12.524;2022-11-20T01:14:13;99809.63;;;-5.01;nan
21863;BME280;11096;51.338;12.524;2022-11-20T01:16:42;99818.91;;;-5.00;nan
21863;BME280;11096;51.338;12.524;2022-11-20T01:19:12;99819.75;;;-4.98;nan
21863;BME280;11096;51.338;12.524;2022-11-20T01:21:40;99816.47;;;-5.06;nan
21863;BME280;11096;51.338;12.524;2022-11-20T01:24:08;99823.16;;;-5.01;nan
21863;BME280;11096;51.338;12.524;2022-11-20T01:26:36;99815.59;;;-5.05;nan
21863;BME280;11096;51.338;12.524;2022-11-20T01:29:03;99817.22;;;-5.00;nan
21863;BME280;11096;51.338;12.524;2022-11-20T01:31:32;99817.22;;;-5.00;nan
21863;BME280;11096;51.338;12.524;2022-11-20T01:34:03;99819.94;;;-5.20;nan
21863;BME280;11096;51.338;12.524;2022-11-20T01:36:31;99814.84;;;-5.15;nan
21863;BME280;11096;51.338;12.524;2022-11-20T01:39:02;99819.00;;;-5.08;nan
21863;BME280;11096;51.338;12.524;2022-11-20T01:41:30;99818.06;;;-4.99;nan
21863;BME280;11096;51.338;12.524;2022-11-20T01:44:18;99817.94;;;-4.87;nan
21863;BME280;11096;51.338;12.524;2022-11-20T01:47:02;99812.91;;;-4.93;nan
21863;BME280;11096;51.338;12.524;2022-11-20T01:49:35;99812.03;;;-4.90;nan
21863;BME280;11096;51.338;12.524;2022-11-20T01:52:13;99806.09;;;-4.86;nan
21863;BME280;11096;51.338;12.524;2022-11-20T01:54:47;99799.31;;;-4.84;nan
21863;BME280;11096;51.338;12.524;2022-11-20T01:57:15;99799.22;;;-4.78;nan
21863;BME280;11096;51.338;12.524;2022-11-20T01:59:44;99797.56;;;-4.81;nan
21863;BME280;11096;51.338;12.524;2022-11-20T02:02:12;99792.50;;;-4.81;nan
21863;BME280;11096;51.338;12.524;2022-11-20T02:04:38;99793.47;;;-4.91;nan
21863;BME280;11096;51.338;12.524;2022-11-20T02:07:04;99785.97;;;-4.99;nan
21863;BME280;11096;51.338;12.524;2022-11-20T02:09:30;99801.13;;;-4.94;nan
21863;BME280;11096;51.338;12.524;2022-11-20T02:11:56;99787.63;;;-4.98;nan
21863;BME280;11096;51.338;12.524;2022-11-20T02:14:23;99786.78;;;-4.97;nan
21863;BME280;11096;51.338;12.524;2022-11-20T02:16:49;99788.50;;;-4.99;nan
21863;BME280;11096;51.338;12.524;2022-11-20T02:19:29;99782.69;;;-5.10;nan
21863;BME280;11096;51.338;12.524;2022-11-20T02:22:02;99783.47;;;-5.05;nan
21863;BME280;11096;51.338;12.524;2022-11-20T02:24:31;99785.09;;;-4.98;nan
21863;BME280;11096;51.338;12.524;2022-11-20T02:27:03;99783.38;;;-4.96;nan
21863;BME280;11096;51.338;12.524;2022-11-20T02:29:37;99779.06;;;-4.87;nan
21863;BME280;11096;51.338;12.524;2022-11-20T02:32:04;99775.72;;;-4.91;nan
21863;BME280;11096;51.338;12.524;2022-11-20T02:34:30;99778.28;;;-4.91;nan
21863;BME280;11096;51.338;12.524;2022-11-20T02:36:56;99772.28;;;-4.85;nan
21863;BME280;11096;51.338;12.524;2022-11-20T02:39:25;99761.22;;;-4.78;nan
21863;BME280;11096;51.338;12.524;2022-11-20T02:41:56;99772.91;;;-4.68;nan
21863;BME280;11096;51.338;12.524;2022-11-20T02:44:21;99772.91;;;-4.68;nan
21863;BME280;11096;51.338;12.524;2022-11-20T02:46:47;99779.00;;;-4.83;nan
21863;BME280;11096;51.338;12.524;2022-11-20T02:49:12;99775.75;;;-4.92;nan
21863;BME280;11096;51.338;12.524;2022-11-20T02:51:38;99772.28;;;-4.85;nan
21863;BME280;11096;51.338;12.524;2022-11-20T02:54:03;99773.03;;;-4.77;nan
21863;BME280;11096;51.338;12.524;2022-11-20T02:56:29;99769.78;;;-4.87;nan
21863;BME280;11096;51.338;12.524;2022-11-20T02:58:54;99771.59;;;-4.97;nan
21863;BME280;11096;51.338;12.524;2022-11-20T03:01:20;99770.81;;;-5.02;nan
21863;BME280;11096;51.338;12.524;2022-11-20T03:03:46;99770.06;;;-5.11;nan
21863;BME280;11096;51.338;12.524;2022-11-20T03:06:14;99759.94;;;-5.13;nan
21863;BME280;11096;51.338;12.524;2022-11-20T03:08:39;99761.63;;;-5.15;nan
21863;BME280;11096;51.338;12.524;2022-11-20T03:11:06;99761.63;;;-5.15;nan
21863;BME280;11096;51.338;12.524;2022-11-20T03:13:32;99760.81;;;-5.15;nan
21863;BME280;11096;51.338;12.524;2022-11-20T03:15:57;99758.97;;;-5.01;nan
21863;BME280;11096;51.338;12.524;2022-11-20T03:18:22;99759.88;;;-5.07;nan
21863;BME280;11096;51.338;12.524;2022-11-20T03:20:48;99763.16;;;-4.99;nan
21863;BME280;11096;51.338;12.524;2022-11-20T03:23:13;99757.97;;;-4.89;nan
21863;BME280;11096;51.338;12.524;2022-11-20T03:25:39;99758.91;;;-4.97;nan
21863;BME280;11096;51.338;12.524;2022-11-20T03:28:04;99763.84;;;-4.86;nan
21863;BME280;11096;51.338;12.524;2022-11-20T03:30:29;99759.59;;;-4.84;nan
21863;BME280;11096;51.338;12.524;2022-11-20T03:32:55;99752.00;;;-4.84;nan
21863;BME280;11096;51.338;12.524;2022-11-20T03:35:20;99758.09;;;-4.97;nan
21863;BME280;11096;51.338;12.524;2022-11-20T03:37:45;99752.91;;;-4.89;nan
21863;BME280;11096;51.338;12.524;2022-11-20T03:40:11;99749.50;;;-4.88;nan
21863;BME280;11096;51.338;12.524;2022-11-20T03:42:37;99746.19;;;-4.95;nan
21863;BME280;11096;51.338;12.524;2022-11-20T03:45:16;99742.78;;;-4.89;nan
21863;BME280;11096;51.338;12.524;2022-11-20T03:47:43;99737.81;;;-4.97;nan
21863;BME280;11096;51.338;12.524;2022-11-20T03:50:11;99735.28;;;-4.99;nan
21863;BME280;11096;51.338;12.524;2022-11-20T03:52:38;99728.53;;;-5.00;nan
21863;BME280;11096;51.338;12.524;2022-11-20T03:55:04;99731.91;;;-5.01;nan
21863;BME280;11096;51.338;12.524;2022-11-20T03:57:30;99728.50;;;-4.98;nan
21863;BME280;11096;51.338;12.524;2022-11-20T03:59:55;99729.28;;;-4.93;nan
21863;BME280;11096;51.338;12.524;2022-11-20T04:02:21;99729.34;;;-4.98;nan
21863;BME280;11096;51.338;12.524;2022-11-20T04:04:46;99729.41;;;-5.02;nan
21863;BME280;11096;51.338;12.524;2022-11-20T04:07:11;99722.72;;;-5.08;nan
21863;BME280;11096;51.338;12.524;2022-11-20T04:09:37;99733.63;;;-5.03;nan
21863;BME280;11096;51.338;12.524;2022-11-20T04:12:02;99731.88;;;-4.94;nan
21863;BME280;11096;51.338;12.524;2022-11-20T04:14:28;99733.53;;;-4.92;nan
21863;BME280;11096;51.338;12.524;2022-11-20T04:16:53;99725.94;;;-4.95;nan
21863;BME280;11096;51.338;12.524;2022-11-20T04:19:18;99732.75;;;-4.97;nan
21863;BME280;11096;51.338;12.524;2022-11-20T04:21:44;99724.31;;;-5.02;nan
21863;BME280;11096;51.338;12.524;2022-11-20T04:24:10;99727.88;;;-5.14;nan
21863;BME280;11096;51.338;12.524;2022-11-20T04:26:38;99726.13;;;-5.09;nan
21863;BME280;11096;51.338;12.524;2022-11-20T04:29:04;99725.28;;;-5.09;nan
21863;BME280;11096;51.338;12.524;2022-11-20T04:31:32;99726.13;;;-5.09;nan
21863;BME280;11096;51.338;12.524;2022-11-20T04:34:05;99728.66;;;-5.09;nan
21863;BME280;11096;51.338;12.524;2022-11-20T04:36:31;99726.13;;;-5.09;nan
21863;BME280;11096;51.338;12.524;2022-11-20T04:38:59;99724.41;;;-5.07;nan
21863;BME280;11096;51.338;12.524;2022-11-20T04:41:29;99723.53;;;-5.07;nan
21863;BME280;11096;51.338;12.524;2022-11-20T04:43:56;99721.84;;;-5.05;nan
21863;BME280;11096;51.338;12.524;2022-11-20T04:46:25;99715.94;;;-5.07;nan
21863;BME280;11096;51.338;12.524;2022-11-20T04:48:51;99713.50;;;-5.13;nan
21863;BME280;11096;51.338;12.524;2022-11-20T04:51:16;99717.59;;;-5.02;nan
21863;BME280;11096;51.338;12.524;2022-11-20T04:53:42;99721.78;;;-4.99;nan
21863;BME280;11096;51.338;12.524;2022-11-20T04:56:10;99721.75;;;-4.98;nan
21863;BME280;11096;51.338;12.524;2022-11-20T04:58:36;99723.44;;;-5.00;nan
21863;BME280;11096;51.338;12.524;2022-11-20T05:01:07;99722.53;;;-4.92;nan
21863;BME280;11096;51.338;12.524;2022-11-20T05:03:34;99717.59;;;-5.02;nan
21863;BME280;11096;51.338;12.524;2022-11-20T05:06:01;99725.91;;;-4.93;nan
21863;BME280;11096;51.338;12.524;2022-11-20T05:08:28;99719.22;;;-4.98;nan
21863;BME280;11096;51.338;12.524;2022-11-20T05:10:53;99715.78;;;-4.93;nan
21863;BME280;11096;51.338;12.524;2022-11-20T05:13:18;99712.38;;;-4.92;nan
21863;BME280;11096;51.338;12.524;2022-11-20T05:15:44;99713.56;;;-5.20;nan
21863;BME280;11096;51.338;12.524;2022-11-20T05:18:09;99720.59;;;-5.43;nan
21863;BME280;11096;51.338;12.524;2022-11-20T05:20:35;99716.25;;;-5.33;nan
21863;BME280;11096;51.338;12.524;2022-11-20T05:23:01;99714.66;;;-5.42;nan
21863;BME280;11096;51.338;12.524;2022-11-20T05:25:27;99709.50;;;-5.34;nan
21863;BME280;11096;51.338;12.524;2022-11-20T05:27:53;99715.25;;;-5.20;nan
21863;BME280;11096;51.338;12.524;2022-11-20T05:30:18;99712.66;;;-5.14;nan
21863;BME280;11096;51.338;12.524;2022-11-20T05:32:44;99717.69;;;-5.11;nan
21863;BME280;11096;51.338;12.524;2022-11-20T05:35:09;99712.59;;;-5.08;nan
21863;BME280;11096;51.338;12.524;2022-11-20T05:37:35;99708.34;;;-5.06;nan
21863;BME280;11096;51.338;12.524;2022-11-20T05:40:00;99707.50;;;-5.06;nan
21863;BME280;11096;51.338;12.524;2022-11-20T05:42:25;99707.47;;;-5.05;nan
21863;BME280;11096;51.338;12.524;2022-11-20T05:45:01;99698.19;;;-5.04;nan
21863;BME280;11096;51.338;12.524;2022-11-20T05:47:30;99689.78;;;-5.08;nan
21863;BME280;11096;51.338;12.524;2022-11-20T05:49:56;99686.41;;;-5.08;nan
21863;BME280;11096;51.338;12.524;2022-11-20T05:52:21;99685.59;;;-5.09;nan
21863;BME280;11096;51.338;12.524;2022-11-20T05:54:47;99677.94;;;-5.07;nan
21863;BME280;11096;51.338;12.524;2022-11-20T05:57:12;99688.03;;;-5.03;nan
21863;BME280;11096;51.338;12.524;2022-11-20T05:59:38;99692.25;;;-5.05;nan
21863;BME280;11096;51.338;12.524;2022-11-20T06:02:03;99678.81;;;-5.07;nan
21863;BME280;11096;51.338;12.524;2022-11-20T06:04:28;99689.16;;;-5.25;nan
21863;BME280;11096;51.338;12.524;2022-11-20T06:06:54;99681.41;;;-5.13;nan
21863;BME280;11096;51.338;12.524;2022-11-20T06:09:19;99678.88;;;-5.13;nan
21863;BME280;11096;51.338;12.524;2022-11-20T06:11:45;99673.00;;;-5.16;nan
21863;BME280;11096;51.338;12.524;2022-11-20T06:14:10;99676.47;;;-5.24;nan
21863;BME280;11096;51.338;12.524;2022-11-20T06:16:36;99676.53;;;-5.28;nan
21863;BME280;11096;51.338;12.524;2022-11-20T06:19:01;99681.56;;;-5.27;nan
21863;BME280;11096;51.338;12.524;2022-11-20T06:21:27;99681.72;;;-5.41;nan
21863;BME280;11096;51.338;12.524;2022-11-20T06:23:52;99679.09;;;-5.31;nan
21863;BME280;11096;51.338;12.524;2022-11-20T06:26:26;99686.63;;;-5.25;nan
21863;BME280;11096;51.338;12.524;2022-11-20T06:28:53;99683.25;;;-5.27;nan
21863;BME280;11096;51.338;12.524;2022-11-20T06:31:21;99684.97;;;-5.29;nan
21863;BME280;11096;51.338;12.524;2022-11-20T06:33:47;99691.72;;;-5.30;nan
21863;BME280;11096;51.338;12.524;2022-11-20T06:36:14;99692.13;;;-5.67;nan
21863;BME280;11096;51.338;12.524;2022-11-20T06:38:40;99684.63;;;-5.76;nan
21863;BME280;11096;51.338;12.524;2022-11-20T06:41:12;99688.06;;;-5.82;nan
21863;BME280;11096;51.338;12.524;2022-11-20T06:43:38;99692.22;;;-5.74;nan
21863;BME280;11096;51.338;12.524;2022-11-20T06:46:04;99692.03;;;-5.56;nan
21863;BME280;11096;51.338;12.524;2022-11-20T06:48:29;99686.06;;;-5.49;nan
21863;BME280;11096;51.338;12.524;2022-11-20T06:50:57;99681.75;;;-5.42;nan
21863;BME280;11096;51.338;12.524;2022-11-20T06:53:23;99689.19;;;-5.30;nan
21863;BME280;11096;51.338;12.524;2022-11-20T06:55:50;99681.63;;;-5.31;nan
21863;BME280;11096;51.338;12.524;2022-11-20T06:58:16;99688.38;;;-5.30;nan
21863;BME280;11096;51.338;12.524;2022-11-20T07:00:41;99684.13;;;-5.28;nan
21863;BME280;11096;51.338;12.524;2022-11-20T07:03:08;99690.03;;;-5.28;nan
21863;BME280;11096;51.338;12.524;2022-11-20T07:05:35;99684.91;;;-5.22;nan
21863;BME280;11096;51.338;12.524;2022-11-20T07:08:01;99689.00;;;-5.13;nan
21863;BME280;11096;51.338;12.524;2022-11-20T07:10:26;99681.41;;;-5.14;nan
21863;BME280;11096;51.338;12.524;2022-11-20T07:12:53;99689.00;;;-5.11;nan
21863;BME280;11096;51.338;12.524;2022-11-20T07:15:19;99683.94;;;-5.13;nan
21863;BME280;11096;51.338;12.524;2022-11-20T07:17:45;99678.81;;;-5.10;nan
21863;BME280;11096;51.338;12.524;2022-11-20T07:20:12;99674.53;;;-5.05;nan
21863;BME280;11096;51.338;12.524;2022-11-20T07:22:37;99670.22;;;-4.98;nan
21863;BME280;11096;51.338;12.524;2022-11-20T07:25:03;99689.63;;;-4.94;nan
21863;BME280;11096;51.338;12.524;2022-11-20T07:27:29;99675.25;;;-4.93;nan
21863;BME280;11096;51.338;12.524;2022-11-20T07:29:54;99684.53;;;-4.94;nan
21863;BME280;11096;51.338;12.524;2022-11-20T07:32:20;99680.38;;;-4.98;nan
21863;BME280;11096;51.338;12.524;2022-11-20T07:34:46;99680.38;;;-4.98;nan
21863;BME280;11096;51.338;12.524;2022-11-20T07:37:12;99680.34;;;-4.97;nan
21863;BME280;11096;51.338;12.524;2022-11-20T07:39:37;99678.88;;;-5.13;nan
21863;BME280;11096;51.338;12.524;2022-11-20T07:42:03;99687.97;;;-4.97;nan
21863;BME280;11096;51.338;12.524;2022-11-20T07:44:28;99681.91;;;-4.86;nan
21863;BME280;11096;51.338;12.524;2022-11-20T07:46:54;99686.22;;;-4.93;nan
21863;BME280;11096;51.338;12.524;2022-11-20T07:49:19;99687.91;;;-4.93;nan
21863;BME280;11096;51.338;12.524;2022-11-20T07:51:44;99679.38;;;-4.86;nan
21863;BME280;11096;51.338;12.524;2022-11-20T07:54:10;99680.03;;;-4.73;nan
21863;BME280;11096;51.338;12.524;2022-11-20T07:56:35;99687.44;;;-4.60;nan
21863;BME280;11096;51.338;12.524;2022-11-20T07:59:01;99689.63;;;-4.35;nan
21863;BME280;11096;51.338;12.524;2022-11-20T08:01:26;99677.59;;;-4.24;nan
21863;BME280;11096;51.338;12.524;2022-11-20T08:03:52;99668.94;;;-4.12;nan
21863;BME280;11096;51.338;12.524;2022-11-20T08:06:17;99668.94;;;-4.11;nan
21863;BME280;11096;51.338;12.524;2022-11-20T08:08:44;99661.41;;;-4.15;nan
21863;BME280;11096;51.338;12.524;2022-11-20T08:11:10;99662.97;;;-4.08;nan
21863;BME280;11096;51.338;12.524;2022-11-20T08:13:54;99662.03;;;-4.04;nan
21863;BME280;11096;51.338;12.524;2022-11-20T08:16:42;99664.53;;;-4.01;nan
21863;BME280;11096;51.338;12.524;2022-11-20T08:19:08;99661.94;;;-3.98;nan
21863;BME280;11096;51.338;12.524;2022-11-20T08:21:33;99665.00;;;-3.79;nan
21863;BME280;11096;51.338;12.524;2022-11-20T08:23:59;99667.47;;;-3.76;nan
21863;BME280;11096;51.338;12.524;2022-11-20T08:26:25;99656.19;;;-3.61;nan
21863;BME280;11096;51.338;12.524;2022-11-20T08:28:57;99662.94;;;-3.58;nan
21863;BME280;11096;51.338;12.524;2022-11-20T08:31:23;99652.63;;;-3.52;nan
21863;BME280;11096;51.338;12.524;2022-11-20T08:33:49;99655.81;;;-3.41;nan
21863;BME280;11096;51.338;12.524;2022-11-20T08:36:15;99657.84;;;-3.16;nan
21863;BME280;11096;51.338;12.524;2022-11-20T08:38:41;99654.88;;;-2.95;nan
21863;BME280;11096;51.338;12.524;2022-11-20T08:41:07;99652.72;;;-2.74;nan
21863;BME280;11096;51.338;12.524;2022-11-20T08:43:59;99658.22;;;-2.55;nan
21863;BME280;11096;51.338;12.524;2022-11-20T08:46:28;99649.59;;;-2.48;nan
21863;BME280;11096;51.338;12.524;2022-11-20T08:48:55;99657.59;;;-2.29;nan
21863;BME280;11096;51.338;12.524;2022-11-20T08:51:21;99654.13;;;-2.25;nan
21863;BME280;11096;51.338;12.524;2022-11-20T08:53:46;99654.22;;;-1.96;nan
21863;BME280;11096;51.338;12.524;2022-11-20T08:56:14;99666.31;;;-2.04;nan
21863;BME280;11096;51.338;12.524;2022-11-20T08:58:39;99664.59;;;-1.69;nan
21863;BME280;11096;51.338;12.524;2022-11-20T09:01:05;99655.38;;;-1.43;nan
21863;BME280;11096;51.338;12.524;2022-11-20T09:03:30;99657.00;;;-1.41;nan
21863;BME280;11096;51.338;12.524;2022-11-20T09:06:00;99658.16;;;-1.51;nan
21863;BME280;11096;51.338;12.524;2022-11-20T09:08:27;99660.09;;;-1.61;nan
21863;BME280;11096;51.338;12.524;2022-11-20T09:10:53;99656.09;;;-1.38;nan
21863;BME280;11096;51.338;12.524;2022-11-20T09:13:20;99652.22;;;-1.52;nan
21863;BME280;11096;51.338;12.524;2022-11-20T09:15:46;99662.75;;;-1.64;nan
21863;BME280;11096;51.338;12.524;2022-11-20T09:18:12;99659.97;;;-1.55;nan
21863;BME280;11096;51.338;12.524;2022-11-20T09:20:38;99659.09;;;-1.24;nan
21863;BME280;11096;51.338;12.524;2022-11-20T09:23:03;99663.63;;;-1.34;nan
21863;BME280;11096;51.338;12.524;2022-11-20T09:25:29;99642.97;;;-0.96;nan
21863;BME280;11096;51.338;12.524;2022-11-20T09:27:58;99649.25;;;-1.06;nan
21863;BME280;11096;51.338;12.524;2022-11-20T09:30:24;99655.03;;;-1.01;nan
21863;BME280;11096;51.338;12.524;2022-11-20T09:32:50;99658.88;;;-1.16;nan
21863;BME280;11096;51.338;12.524;2022-11-20T09:35:15;99654.22;;;-1.02;nan
21863;BME280;11096;51.338;12.524;2022-11-20T09:37:42;99657.84;;;-0.53;nan
21863;BME280;11096;51.338;12.524;2022-11-20T09:40:24;99652.41;;;-0.70;nan
21863;BME280;11096;51.338;12.524;2022-11-20T09:43:01;99648.47;;;-0.80;nan
21863;BME280;11096;51.338;12.524;2022-11-20T09:45:50;99650.91;;;-0.76;nan
21863;BME280;11096;51.338;12.524;2022-11-20T09:56:19;99640.22;;;0.41;nan
21863;BME280;11096;51.338;12.524;2022-11-20T09:58:48;99644.06;;;0.53;nan
21863;BME280;11096;51.338;12.524;2022-11-20T10:01:20;99636.63;;;0.71;nan
21863;BME280;11096;51.338;12.524;2022-11-20T10:06:17;99645.75;;;0.78;nan
21863;BME280;11096;51.338;12.524;2022-11-20T10:17:20;99609.41;;;0.46;nan
21863;BME280;11096;51.338;12.524;2022-11-20T10:30:42;99613.75;;;-0.58;nan
21863;BME280;11096;51.338;12.524;2022-11-20T10:33:17;99607.66;;;-0.80;nan
21863;BME280;11096;51.338;12.524;2022-11-20T10:38:36;99608.72;;;-0.88;nan
21863;BME280;11096;51.338;12.524;2022-11-20T10:41:04;99602.84;;;-1.18;nan
21863;BME280;11096;51.338;12.524;2022-11-20T10:43:52;99601.06;;;-1.16;nan
21863;BME280;11096;51.338;12.524;2022-11-20T10:46:20;99601.41;;;-1.28;nan
21863;BME280;11096;51.338;12.524;2022-11-20T10:48:50;99598.84;;;-1.26;nan
21863;BME280;11096;51.338;12.524;2022-11-20T10:51:40;99595.69;;;-1.35;nan
21863;BME280;11096;51.338;12.524;2022-11-20T10:54:33;99598.50;;;-1.44;nan
21863;BME280;11096;51.338;12.524;2022-11-20T10:57:17;99603.97;;;-0.98;nan
21863;BME280;11096;51.338;12.524;2022-11-20T10:59:54;99590.81;;;-0.33;nan
21863;BME280;11096;51.338;12.524;2022-11-20T11:02:23;99587.91;;;0.52;nan
21863;BME280;11096;51.338;12.524;2022-11-20T11:04:51;99579.31;;;0.98;nan
21863;BME280;11096;51.338;12.524;2022-11-20T11:09:50;99567.25;;;1.24;nan
21863;BME280;11096;51.338;12.524;2022-11-20T11:12:18;99566.94;;;1.10;nan
21863;BME280;11096;51.338;12.524;2022-11-20T11:14:49;99561.69;;;1.35;nan
21863;BME280;11096;51.338;12.524;2022-11-20T11:17:28;99552.09;;;1.40;nan
21863;BME280;11096;51.338;12.524;2022-11-20T11:20:24;99545.34;;;1.17;nan
21863;BME280;11096;51.338;12.524;2022-11-20T11:22:51;99549.81;;;1.12;nan
21863;BME280;11096;51.338;12.524;2022-11-20T11:25:27;99551.16;;;0.54;nan
21863;BME280;11096;51.338;12.524;2022-11-20T11:27:54;99550.25;;;0.55;nan
21863;BME280;11096;51.338;12.524;2022-11-20T11:30:22;99549.47;;;0.53;nan
21863;BME280;11096;51.338;12.524;2022-11-20T11:32:48;99549.84;;;0.20;nan
21863;BME280;11096;51.338;12.524;2022-11-20T11:35:24;99553.72;;;0.31;nan
21863;BME280;11096;51.338;12.524;2022-11-20T11:37:51;99557.50;;;0.20;nan
21863;BME280;11096;51.338;12.524;2022-11-20T11:40:19;99548.97;;;-0.04;nan
21863;BME280;11096;51.338;12.524;2022-11-20T11:43:00;99546.38;;;-0.02;nan
21863;BME280;11096;51.338;12.524;2022-11-20T11:45:26;99544.34;;;-0.17;nan
21863;BME280;11096;51.338;12.524;2022-11-20T11:47:54;99539.94;;;-0.12;nan
21863;BME280;11096;51.338;12.524;2022-11-20T11:50:23;99535.03;;;-0.18;nan
21863;BME280;11096;51.338;12.524;2022-11-20T11:55:22;99538.75;;;-0.04;nan
21863;BME280;11096;51.338;12.524;2022-11-20T12:00:54;99542.50;;;0.11;nan
21863;BME280;11096;51.338;12.524;2022-11-20T12:03:36;99548.94;;;0.21;nan
21863;BME280;11096;51.338;12.524;2022-11-20T12:06:10;99548.03;;;-0.01;nan
21863;BME280;11096;51.338;12.524;2022-11-20T12:08:50;99542.38;;;0.14;nan
21863;BME280;11096;51.338;12.524;2022-11-20T12:16:37;99537.31;;;0.36;nan
21863;BME280;11096;51.338;12.524;2022-11-20T12:19:10;99540.00;;;0.57;nan
21863;BME280;11096;51.338;12.524;2022-11-20T12:29:59;99513.47;;;1.65;nan
21863;BME280;11096;51.338;12.524;2022-11-20T12:40:27;99520.84;;;0.89;nan
21863;BME280;11096;51.338;12.524;2022-11-20T12:46:18;99516.75;;;0.85;nan
21863;BME280;11096;51.338;12.524;2022-11-20T12:49:05;99508.22;;;0.62;nan
21863;BME280;11096;51.338;12.524;2022-11-20T12:54:50;99502.03;;;0.68;nan
21863;BME280;11096;51.338;12.524;2022-11-20T12:57:53;99494.06;;;0.76;nan
21863;BME280;11096;51.338;12.524;2022-11-20T13:00:22;99494.38;;;0.90;nan
21863;BME280;11096;51.338;12.524;2022-11-20T13:03:00;99498.66;;;0.90;nan
21863;BME280;11096;51.338;12.524;2022-11-20T13:05:31;99498.66;;;0.90;nan
21863;BME280;11096;51.338;12.524;2022-11-20T13:08:02;99503.94;;;0.63;nan
21863;BME280;11096;51.338;12.524;2022-11-20T13:10:43;99496.78;;;0.93;nan
21863;BME280;11096;51.338;12.524;2022-11-20T13:13:34;99498.13;;;1.03;nan
21863;BME280;11096;51.338;12.524;2022-11-20T13:16:19;99494.38;;;0.90;nan
21863;BME280;11096;51.338;12.524;2022-11-20T13:18:45;99500.69;;;0.59;nan
21863;BME280;11096;51.338;12.524;2022-11-20T13:21:21;99505.59;;;0.42;nan
21863;BME280;11096;51.338;12.524;2022-11-20T13:23:47;99508.81;;;0.47;nan
21863;BME280;11096;51.338;12.524;2022-11-20T13:26:22;99504.25;;;0.55;nan
21863;BME280;11096;51.338;12.524;2022-11-20T13:29:01;99509.88;;;0.41;nan
21863;BME280;11096;51.338;12.524;2022-11-20T13:31:34;99515.00;;;0.63;nan
21863;BME280;11096;51.338;12.524;2022-11-20T13:34:03;99506.28;;;0.69;nan
21863;BME280;11096;51.338;12.524;2022-11-20T13:36:29;99503.38;;;0.33;nan
21863;BME280;11096;51.338;12.524;2022-11-20T13:38:56;99496.78;;;0.27;nan
21863;BME280;11096;51.338;12.524;2022-11-20T13:41:32;99493.34;;;0.50;nan
21863;BME280;11096;51.338;12.524;2022-11-20T13:44:13;99478.03;;;0.50;nan
21863;BME280;11096;51.338;12.524;2022-11-20T13:46:45;99471.34;;;0.46;nan
21863;BME280;11096;51.338;12.524;2022-11-20T13:49:26;99459.47;;;0.45;nan
21863;BME280;11096;51.338;12.524;2022-11-20T13:52:03;99466.50;;;0.40;nan
21863;BME280;11096;51.338;12.524;2022-11-20T14:00:14;99479.41;;;0.13;nan
21863;BME280;11096;51.338;12.524;2022-11-20T14:02:40;99471.94;;;0.07;nan
21863;BME280;11096;51.338;12.524;2022-11-20T14:05:33;99476.34;;;0.04;nan
21863;BME280;11096;51.338;12.524;2022-11-20T14:08:03;99460.75;;;-0.12;nan
21863;BME280;11096;51.338;12.524;2022-11-20T14:10:29;99460.91;;;-0.17;nan
21863;BME280;11096;51.338;12.524;2022-11-20T14:12:55;99463.97;;;-0.07;nan
21863;BME280;11096;51.338;12.524;2022-11-20T14:15:34;99451.66;;;-0.19;nan
21863;BME280;11096;51.338;12.524;2022-11-20T14:18:00;99461.09;;;-0.22;nan
21863;BME280;11096;51.338;12.524;2022-11-20T14:20:37;99463.75;;;-0.25;nan
21863;BME280;11096;51.338;12.524;2022-11-20T14:23:03;99460.41;;;-0.27;nan
21863;BME280;11096;51.338;12.524;2022-11-20T14:25:30;99451.31;;;-0.34;nan
21863;BME280;11096;51.338;12.524;2022-11-20T14:27:57;99459.00;;;-0.35;nan
21863;BME280;11096;51.338;12.524;2022-11-20T14:30:26;99460.72;;;-0.36;nan
21863;BME280;11096;51.338;12.524;2022-11-20T14:32:55;99464.34;;;-0.41;nan
21863;BME280;11096;51.338;12.524;2022-11-20T14:35:25;99471.53;;;-0.53;nan